createdAt,value
2023-10-21T00:01:29.960Z,41.00
2023-10-21T00:03:56.538Z,41.08
2023-10-21T00:06:23.995Z,41.10
2023-10-21T00:08:50.430Z,41.24
2023-10-21T00:11:17.587Z,41.18
2023-10-21T00:13:44.106Z,41.14
2023-10-21T00:16:12.939Z,41.20
2023-10-21T00:18:40.131Z,41.17
2023-10-21T00:21:06.687Z,41.23
2023-10-21T00:23:33.228Z,41.15
2023-10-21T00:26:03.446Z,41.17
2023-10-21T00:28:30.027Z,41.20
2023-10-21T00:30:56.510Z,41.25
2023-10-21T00:33:23.000Z,41.21
2023-10-21T00:35:49.424Z,41.22
2023-10-21T00:38:15.892Z,41.19
2023-10-21T00:40:55.546Z,41.21
2023-10-21T00:43:31.807Z,41.21
2023-10-21T00:45:58.371Z,41.25
2023-10-21T00:48:26.246Z,41.23
2023-10-21T00:50:53.019Z,41.27
2023-10-21T00:53:19.644Z,41.28
2023-10-21T00:55:46.106Z,41.20
2023-10-21T00:58:12.664Z,41.25
2023-10-21T01:00:39.417Z,41.41
2023-10-21T01:03:06.089Z,41.23
2023-10-21T01:05:32.614Z,41.18
2023-10-21T01:07:59.982Z,41.23
2023-10-21T01:10:26.889Z,41.23
2023-10-21T01:12:53.285Z,41.22
2023-10-21T01:15:19.747Z,41.25
2023-10-21T01:17:52.518Z,41.23
2023-10-21T01:20:19.086Z,41.28
2023-10-21T01:22:45.636Z,41.27
2023-10-21T01:25:12.436Z,41.36
2023-10-21T01:27:38.980Z,41.23
2023-10-21T01:30:08.695Z,41.28
2023-10-21T01:32:35.532Z,41.27
2023-10-21T01:35:01.970Z,41.36
2023-10-21T01:37:28.396Z,41.29
2023-10-21T01:39:56.005Z,41.28
2023-10-21T01:42:22.437Z,41.23
2023-10-21T01:44:48.923Z,41.28
2023-10-21T01:47:15.396Z,41.37
2023-10-21T01:49:41.825Z,41.36
2023-10-21T01:52:08.242Z,41.42
2023-10-21T01:54:34.656Z,41.34
2023-10-21T01:57:01.578Z,41.28
2023-10-21T01:59:28.098Z,41.31
2023-10-21T02:01:54.621Z,41.39
2023-10-21T02:04:21.075Z,41.24
2023-10-21T02:06:47.676Z,41.35
2023-10-21T02:09:14.120Z,41.39
2023-10-21T02:11:40.532Z,41.38
2023-10-21T02:14:07.086Z,41.42
2023-10-21T02:16:33.489Z,41.44
2023-10-21T02:18:59.868Z,41.42
2023-10-21T02:21:27.052Z,41.37
2023-10-21T02:23:53.569Z,41.40
2023-10-21T02:26:20.012Z,41.39
2023-10-21T02:28:46.551Z,41.30
2023-10-21T02:31:13.753Z,41.34
2023-10-21T02:33:41.216Z,41.38
2023-10-21T02:36:08.013Z,41.45
2023-10-21T02:38:34.427Z,41.41
2023-10-21T02:41:00.832Z,41.46
2023-10-21T02:43:28.537Z,41.49
2023-10-21T02:45:54.978Z,41.43
2023-10-21T02:48:21.521Z,41.45
2023-10-21T02:50:49.420Z,41.33
2023-10-21T02:53:15.867Z,41.41
2023-10-21T02:55:42.299Z,41.37
2023-10-21T02:58:08.686Z,41.49
2023-10-21T03:00:35.232Z,41.32
2023-10-21T03:03:01.986Z,41.48
2023-10-21T03:05:28.519Z,41.38
2023-10-21T03:07:55.011Z,41.54
2023-10-21T03:10:24.003Z,41.52
2023-10-21T03:12:50.418Z,41.48
2023-10-21T03:15:16.993Z,41.50
2023-10-21T03:17:43.580Z,41.44
2023-10-21T03:20:10.642Z,41.57
2023-10-21T03:22:37.390Z,41.46
2023-10-21T03:25:06.554Z,41.44
2023-10-21T03:27:33.426Z,41.52
2023-10-21T03:29:59.860Z,41.50
2023-10-21T03:32:26.469Z,41.58
2023-10-21T03:34:53.246Z,41.43
2023-10-21T03:37:19.664Z,41.52
2023-10-21T03:39:46.080Z,41.48
2023-10-21T03:42:12.581Z,41.48
2023-10-21T03:44:39.769Z,41.51
2023-10-21T03:47:06.391Z,41.53
2023-10-21T03:49:32.934Z,41.54
2023-10-21T03:51:59.340Z,41.47
2023-10-21T03:54:25.794Z,41.65
2023-10-21T03:56:52.694Z,41.57
2023-10-21T03:59:19.153Z,41.57
2023-10-21T04:01:45.549Z,41.52
2023-10-21T04:04:12.376Z,41.61
2023-10-21T04:06:38.866Z,41.62
2023-10-21T04:09:05.335Z,41.67
2023-10-21T04:11:31.767Z,41.65
2023-10-21T04:13:58.836Z,41.60
2023-10-21T04:16:25.265Z,41.62
2023-10-21T04:18:51.707Z,41.55
2023-10-21T04:21:18.341Z,41.55
2023-10-21T04:23:44.887Z,41.68
2023-10-21T04:26:11.413Z,41.60
2023-10-21T04:28:37.882Z,41.58
2023-10-21T04:31:04.287Z,41.70
2023-10-21T04:33:30.959Z,41.54
2023-10-21T04:35:57.568Z,41.66
2023-10-21T04:38:24.100Z,41.57
2023-10-21T04:40:50.636Z,41.62
2023-10-21T04:43:17.619Z,41.75
2023-10-21T04:45:44.014Z,41.66
2023-10-21T04:48:11.801Z,41.72
2023-10-21T04:50:38.240Z,41.72
2023-10-21T04:53:04.710Z,41.62
2023-10-21T04:55:31.433Z,41.64
2023-10-21T04:57:58.907Z,41.65
2023-10-21T05:00:25.973Z,41.79
2023-10-21T05:02:52.652Z,41.68
2023-10-21T05:05:19.212Z,41.57
2023-10-21T05:07:45.645Z,41.81
2023-10-21T05:10:12.238Z,41.67
2023-10-21T05:12:38.963Z,41.58
2023-10-21T05:15:05.675Z,41.62
2023-10-21T05:17:32.272Z,41.69
2023-10-21T05:19:58.797Z,41.64
2023-10-21T05:22:25.339Z,41.74
2023-10-21T05:24:51.736Z,41.77
2023-10-21T05:27:18.148Z,41.76
2023-10-21T05:29:44.639Z,41.69
2023-10-21T05:32:11.061Z,41.67
2023-10-21T05:34:37.654Z,41.69
2023-10-21T05:37:04.470Z,41.78
2023-10-21T05:39:31.130Z,41.77
2023-10-21T05:41:58.013Z,41.73
2023-10-21T05:44:37.151Z,41.79
2023-10-21T05:47:10.899Z,41.81
2023-10-21T05:49:37.877Z,41.82
2023-10-21T05:52:04.540Z,41.77
2023-10-21T05:54:32.182Z,41.74
2023-10-21T05:56:58.727Z,41.81
2023-10-21T05:59:25.243Z,41.74
2023-10-21T06:01:51.668Z,41.85
2023-10-21T06:04:18.269Z,41.89
2023-10-21T06:06:45.476Z,41.85
2023-10-21T06:09:12.028Z,41.87
2023-10-21T06:11:38.489Z,41.79
2023-10-21T06:14:05.009Z,41.84
2023-10-21T06:16:31.448Z,41.74
2023-10-21T06:18:57.831Z,41.78
2023-10-21T06:21:24.340Z,41.84
2023-10-21T06:23:51.714Z,41.79
2023-10-21T06:26:18.151Z,41.89
2023-10-21T06:28:44.672Z,41.74
2023-10-21T06:31:12.291Z,41.84
2023-10-21T06:33:39.243Z,41.84
2023-10-21T06:36:05.965Z,41.94
2023-10-21T06:38:32.432Z,41.90
2023-10-21T06:41:10.961Z,41.95
2023-10-21T06:43:41.711Z,41.91
2023-10-21T06:46:08.284Z,42.03
2023-10-21T06:48:34.885Z,41.92
2023-10-21T06:51:01.397Z,42.03
2023-10-21T06:53:30.640Z,42.00
2023-10-21T06:55:57.456Z,42.02
2023-10-21T06:58:23.861Z,42.09
2023-10-21T07:00:50.315Z,41.91
2023-10-21T07:03:18.307Z,42.02
2023-10-21T07:05:44.819Z,41.97
2023-10-21T07:08:11.207Z,42.04
2023-10-21T07:10:39.628Z,41.99
2023-10-21T07:13:06.131Z,41.96
2023-10-21T07:15:32.666Z,42.03
2023-10-21T07:17:59.306Z,42.07
2023-10-21T07:20:27.343Z,42.15
2023-10-21T07:22:54.298Z,42.06
2023-10-21T07:25:20.948Z,42.00
2023-10-21T07:27:47.675Z,42.08
2023-10-21T07:30:14.435Z,42.04
2023-10-21T07:32:40.968Z,42.15
2023-10-21T07:35:08.014Z,42.15
2023-10-21T07:37:34.460Z,42.27
2023-10-21T07:40:01.068Z,42.20
2023-10-21T07:42:27.875Z,42.22
2023-10-21T07:44:54.752Z,42.08
2023-10-21T07:47:21.779Z,42.12
2023-10-21T07:49:48.340Z,42.08
2023-10-21T07:52:14.817Z,42.11
2023-10-21T07:54:41.675Z,42.08
2023-10-21T07:57:09.747Z,42.12
2023-10-21T07:59:36.219Z,42.15
2023-10-21T08:02:02.987Z,42.09
2023-10-21T08:04:29.860Z,42.14
2023-10-21T08:06:56.946Z,42.19
2023-10-21T08:09:23.395Z,42.31
2023-10-21T08:11:49.824Z,42.32
2023-10-21T08:14:18.685Z,42.22
2023-10-21T08:16:45.746Z,42.17
2023-10-21T08:19:12.923Z,42.22
2023-10-21T08:21:39.473Z,42.31
2023-10-21T08:24:06.296Z,42.39
2023-10-21T08:26:33.250Z,42.26
2023-10-21T08:29:00.124Z,42.20
2023-10-21T08:31:26.937Z,42.27
2023-10-21T08:33:53.921Z,42.16
2023-10-21T08:36:21.704Z,42.27
2023-10-21T08:38:48.871Z,42.29
2023-10-21T08:41:15.596Z,42.23
2023-10-21T08:43:48.782Z,42.28
2023-10-21T08:46:16.435Z,42.25
2023-10-21T08:48:44.127Z,42.20
2023-10-21T08:51:11.508Z,42.38
2023-10-21T08:53:40.797Z,42.44
2023-10-21T08:56:07.169Z,42.41
2023-10-21T08:58:33.629Z,42.33
2023-10-21T09:01:00.407Z,42.45
2023-10-21T09:03:27.129Z,42.27
2023-10-21T09:06:07.832Z,42.35
2023-10-21T09:08:35.368Z,42.33
2023-10-21T09:11:01.903Z,42.33
2023-10-21T09:13:31.575Z,42.38
2023-10-21T09:15:58.963Z,42.46
2023-10-21T09:18:25.586Z,42.26
2023-10-21T09:20:52.134Z,42.47
2023-10-21T09:23:18.948Z,42.47
2023-10-21T09:25:52.919Z,42.59
2023-10-21T09:28:20.991Z,42.42
2023-10-21T09:30:57.114Z,42.33
2023-10-21T09:33:24.020Z,42.56
2023-10-21T09:36:22.102Z,42.54
2023-10-21T09:38:51.142Z,42.47
2023-10-21T09:41:19.958Z,42.67
2023-10-21T09:43:48.734Z,42.49
2023-10-21T09:46:16.485Z,42.47
2023-10-21T09:48:44.634Z,42.56
2023-10-21T09:51:12.736Z,42.44
2023-10-21T09:53:40.285Z,42.57
2023-10-21T09:56:08.509Z,42.65
2023-10-21T09:58:35.728Z,42.53
2023-10-21T10:01:06.938Z,42.51
2023-10-21T10:03:37.634Z,42.50
2023-10-21T10:06:07.191Z,42.60
2023-10-21T10:08:34.718Z,42.57
2023-10-21T10:11:09.474Z,42.49
2023-10-21T10:13:38.306Z,42.60
2023-10-21T10:16:24.062Z,42.47
2023-10-21T10:18:51.487Z,42.61
2023-10-21T10:21:22.102Z,42.52
2023-10-21T10:23:50.476Z,42.50
2023-10-21T10:26:27.808Z,42.49
2023-10-21T10:28:54.256Z,42.49
2023-10-21T10:31:22.205Z,42.50
2023-10-21T10:33:52.095Z,42.66
2023-10-21T10:36:31.534Z,42.62
2023-10-21T10:38:58.042Z,42.69
2023-10-21T10:41:24.525Z,42.74
2023-10-21T10:44:03.080Z,42.71
2023-10-21T10:46:31.869Z,42.60
2023-10-21T10:49:01.824Z,42.56
2023-10-21T10:51:32.088Z,42.79
2023-10-21T10:54:02.048Z,42.74
2023-10-21T10:56:42.134Z,42.63
2023-10-21T10:59:08.730Z,42.58
2023-10-21T11:01:35.189Z,42.62
2023-10-21T11:04:02.945Z,42.62
2023-10-21T11:06:36.538Z,42.65
2023-10-21T11:09:05.725Z,42.79
2023-10-21T11:11:58.560Z,42.64
2023-10-21T11:14:33.907Z,42.67
2023-10-21T11:17:01.454Z,42.74
2023-10-21T11:19:28.245Z,42.70
2023-10-21T11:21:54.618Z,42.79
2023-10-21T11:24:21.072Z,42.81
2023-10-21T11:26:48.203Z,42.62
2023-10-21T11:29:14.797Z,42.66
2023-10-21T11:31:41.354Z,42.79
2023-10-21T11:34:15.201Z,42.80
2023-10-21T11:36:45.410Z,42.87
2023-10-21T11:39:14.996Z,42.64
2023-10-21T11:41:48.502Z,42.72
2023-10-21T11:44:18.739Z,42.78
2023-10-21T11:46:45.259Z,42.84
2023-10-21T11:49:19.896Z,42.79
2023-10-21T11:51:53.353Z,42.90
2023-10-21T11:54:40.682Z,42.90
2023-10-21T11:57:07.566Z,42.77
2023-10-21T11:59:49.220Z,42.94
2023-10-21T12:02:28.593Z,42.73
2023-10-21T12:05:03.869Z,42.91
2023-10-21T12:07:49.330Z,43.07
2023-10-21T12:10:25.026Z,42.96
2023-10-21T12:13:11.134Z,42.95
2023-10-21T12:15:49.680Z,42.96
2023-10-21T12:18:34.940Z,42.98
2023-10-21T12:21:23.483Z,43.11
2023-10-21T12:24:08.592Z,43.07
2023-10-21T12:26:53.391Z,43.09
2023-10-21T12:29:32.358Z,43.12
2023-10-21T12:32:17.593Z,43.01
2023-10-21T12:34:51.580Z,43.19
2023-10-21T12:37:28.799Z,43.18
2023-10-21T12:39:59.020Z,43.17
2023-10-21T12:42:45.149Z,43.18
2023-10-21T12:45:20.368Z,43.40
2023-10-21T12:47:49.355Z,43.28
2023-10-21T12:50:16.520Z,43.15
2023-10-21T12:52:44.843Z,43.35
2023-10-21T12:55:15.624Z,43.33
2023-10-21T12:57:44.879Z,43.22
2023-10-21T13:00:13.088Z,43.12
2023-10-21T13:02:41.711Z,43.31
2023-10-21T13:05:08.979Z,43.31
2023-10-21T13:07:35.496Z,43.32
2023-10-21T13:10:01.917Z,43.23
2023-10-21T13:12:28.559Z,43.22
2023-10-21T13:14:55.376Z,42.97
2023-10-21T13:17:23.479Z,42.97
2023-10-21T13:19:49.950Z,43.15
2023-10-21T13:22:16.382Z,43.19
2023-10-21T13:24:42.949Z,43.21
2023-10-21T13:27:09.442Z,42.98
2023-10-21T13:29:37.361Z,43.10
2023-10-21T13:32:04.402Z,43.15
2023-10-21T13:34:32.191Z,43.03
2023-10-21T13:36:59.196Z,43.33
2023-10-21T13:39:29.311Z,43.10
2023-10-21T13:41:56.110Z,42.96
2023-10-21T13:44:22.507Z,43.00
2023-10-21T13:46:48.939Z,42.98
2023-10-21T13:49:16.689Z,43.28
2023-10-21T13:51:43.836Z,43.14
2023-10-21T13:54:12.152Z,42.99
2023-10-21T13:56:38.775Z,43.28
2023-10-21T13:59:10.732Z,43.13
2023-10-21T14:01:37.237Z,43.15
2023-10-21T14:04:03.935Z,43.13
2023-10-21T14:06:30.539Z,43.14
2023-10-21T14:08:57.004Z,43.14
2023-10-21T14:11:23.456Z,43.29
2023-10-21T14:13:49.898Z,43.15
2023-10-21T14:16:16.607Z,43.24
2023-10-21T14:18:44.935Z,43.08
2023-10-21T14:21:11.972Z,43.19
2023-10-21T14:23:38.396Z,43.21
2023-10-21T14:26:05.062Z,43.29
2023-10-21T14:28:31.983Z,43.15
2023-10-21T14:31:00.163Z,43.34
2023-10-21T14:33:29.364Z,43.35
2023-10-21T14:35:57.420Z,43.22
2023-10-21T14:38:30.029Z,43.35
2023-10-21T14:40:56.497Z,43.19
2023-10-21T14:43:25.917Z,43.42
2023-10-21T14:45:53.100Z,43.40
2023-10-21T14:48:20.295Z,43.44
2023-10-21T14:50:49.234Z,43.36
2023-10-21T14:53:15.755Z,43.33
2023-10-21T14:55:52.444Z,43.33
2023-10-21T14:58:24.358Z,43.35
2023-10-21T15:00:52.012Z,43.22
2023-10-21T15:03:21.038Z,43.22
2023-10-21T15:05:48.554Z,43.14
2023-10-21T15:08:15.540Z,43.28
2023-10-21T15:10:44.367Z,43.20
2023-10-21T15:13:11.561Z,43.31
2023-10-21T15:15:38.224Z,43.14
2023-10-21T15:18:06.162Z,43.16
2023-10-21T15:20:33.665Z,43.25
2023-10-21T15:23:00.536Z,43.36
2023-10-21T15:25:26.976Z,43.40
2023-10-21T15:27:53.463Z,43.18
2023-10-21T15:30:20.945Z,43.40
2023-10-21T15:32:48.157Z,43.34
2023-10-21T15:35:15.921Z,43.41
2023-10-21T15:37:43.345Z,43.23
2023-10-21T15:40:10.679Z,43.26
2023-10-21T15:42:37.092Z,43.43
2023-10-21T15:45:03.723Z,43.34
2023-10-21T15:47:30.439Z,43.56
2023-10-21T15:49:56.901Z,43.51
2023-10-21T15:52:23.607Z,43.36
2023-10-21T15:54:50.236Z,43.41
2023-10-21T15:57:17.073Z,43.42
2023-10-21T15:59:43.972Z,43.50
2023-10-21T16:02:10.873Z,43.43
2023-10-21T16:04:39.183Z,43.53
2023-10-21T16:07:05.675Z,43.33
2023-10-21T16:09:33.875Z,43.56
2023-10-21T16:12:00.895Z,43.58
2023-10-21T16:14:29.609Z,43.61
2023-10-21T16:16:56.889Z,43.49
2023-10-21T16:19:24.073Z,43.62
2023-10-21T16:21:55.275Z,43.44
2023-10-21T16:24:22.401Z,43.63
2023-10-21T16:26:48.919Z,43.57
2023-10-21T16:29:18.873Z,43.51
2023-10-21T16:31:45.312Z,43.49
2023-10-21T16:34:11.965Z,43.58
2023-10-21T16:36:38.699Z,43.56
2023-10-21T16:39:05.202Z,43.46
2023-10-21T16:41:31.688Z,43.49
2023-10-21T16:43:58.045Z,43.40
2023-10-21T16:46:24.640Z,43.49
2023-10-21T16:48:51.164Z,43.34
2023-10-21T16:51:17.687Z,43.52
2023-10-21T16:53:44.132Z,43.63
2023-10-21T16:56:13.527Z,43.52
2023-10-21T16:58:39.992Z,43.52
2023-10-21T17:01:06.383Z,43.68
2023-10-21T17:03:32.896Z,43.52
2023-10-21T17:06:01.866Z,43.46
2023-10-21T17:08:35.471Z,43.70
2023-10-21T17:11:02.684Z,43.63
2023-10-21T17:13:29.256Z,43.70
2023-10-21T17:15:55.885Z,43.45
2023-10-21T17:18:25.893Z,43.65
2023-10-21T17:20:52.516Z,43.56
2023-10-21T17:23:18.979Z,43.54
2023-10-21T17:25:46.757Z,43.65
2023-10-21T17:28:13.193Z,43.69
2023-10-21T17:30:39.764Z,43.53
2023-10-21T17:33:06.329Z,43.59
2023-10-21T17:35:32.862Z,43.56
2023-10-21T17:37:59.353Z,43.62
2023-10-21T17:40:25.731Z,43.46
2023-10-21T17:42:52.224Z,43.60
2023-10-21T17:45:19.066Z,43.57
2023-10-21T17:47:45.586Z,43.56
2023-10-21T17:50:12.100Z,43.54
2023-10-21T17:52:38.552Z,43.55
2023-10-21T17:55:06.482Z,43.45
2023-10-21T17:57:35.067Z,43.44
2023-10-21T18:00:01.499Z,43.43
2023-10-21T18:02:29.536Z,43.43
2023-10-21T18:04:56.088Z,43.42
2023-10-21T18:07:23.787Z,43.60
2023-10-21T18:09:53.685Z,43.48
2023-10-21T18:12:21.501Z,43.62
2023-10-21T18:14:48.091Z,43.45
2023-10-21T18:17:14.671Z,43.43
2023-10-21T18:19:41.114Z,43.44
2023-10-21T18:22:07.556Z,43.45
2023-10-21T18:24:38.429Z,43.44
2023-10-21T18:27:08.404Z,43.42
2023-10-21T18:29:35.262Z,43.64
2023-10-21T18:32:02.471Z,43.60
2023-10-21T18:34:28.969Z,43.66
2023-10-21T18:36:55.569Z,43.42
2023-10-21T18:39:22.701Z,43.58
2023-10-21T18:41:49.104Z,43.59
2023-10-21T18:44:17.179Z,43.56
2023-10-21T18:46:43.835Z,43.56
2023-10-21T18:49:10.470Z,43.55
2023-10-21T18:51:37.259Z,43.61
2023-10-21T18:54:07.645Z,43.52
2023-10-21T18:56:34.659Z,43.45
2023-10-21T18:59:01.434Z,43.54
2023-10-21T19:01:29.116Z,43.56
2023-10-21T19:03:55.829Z,43.56
2023-10-21T19:06:22.360Z,43.44
2023-10-21T19:08:48.745Z,43.63
2023-10-21T19:11:15.164Z,43.76
2023-10-21T19:13:41.613Z,43.32
2023-10-21T19:16:08.068Z,43.48
2023-10-21T19:18:34.534Z,43.46
2023-10-21T19:21:07.779Z,43.49
2023-10-21T19:23:35.252Z,43.58
2023-10-21T19:26:01.831Z,43.41
2023-10-21T19:28:31.202Z,43.48
2023-10-21T19:30:58.646Z,43.54
2023-10-21T19:33:25.305Z,43.38
2023-10-21T19:35:55.806Z,43.58
2023-10-21T19:38:22.634Z,43.53
2023-10-21T19:40:49.193Z,43.52
2023-10-21T19:43:15.685Z,43.48
2023-10-21T19:45:45.103Z,43.58
2023-10-21T19:48:12.612Z,43.36
2023-10-21T19:50:42.905Z,43.49
2023-10-21T19:53:09.773Z,43.40
2023-10-21T19:55:36.497Z,43.58
2023-10-21T19:58:06.483Z,43.42
2023-10-21T20:00:33.468Z,43.57
2023-10-21T20:03:00.155Z,43.39
2023-10-21T20:05:27.106Z,43.33
2023-10-21T20:07:53.728Z,43.39
2023-10-21T20:10:22.986Z,43.44
2023-10-21T20:12:49.501Z,43.48
2023-10-21T20:15:16.588Z,43.54
2023-10-21T20:17:43.074Z,43.55
2023-10-21T20:20:10.312Z,43.49
2023-10-21T20:22:36.854Z,43.50
2023-10-21T20:25:04.091Z,43.41
2023-10-21T20:27:30.567Z,43.34
2023-10-21T20:29:57.128Z,43.42
2023-10-21T20:32:23.585Z,43.58
2023-10-21T20:34:50.936Z,43.49
2023-10-21T20:37:17.465Z,43.49
2023-10-21T20:39:46.431Z,43.48
2023-10-21T20:42:14.397Z,43.42
2023-10-21T20:44:40.916Z,43.49
2023-10-21T20:47:07.332Z,43.50
2023-10-21T20:49:33.905Z,43.33
2023-10-21T20:52:04.937Z,43.55
2023-10-21T20:54:32.239Z,43.43
2023-10-21T20:56:59.159Z,43.41
2023-10-21T20:59:26.382Z,43.27
2023-10-21T21:01:52.901Z,43.42
2023-10-21T21:04:20.303Z,43.40
2023-10-21T21:06:46.999Z,43.40
2023-10-21T21:09:13.562Z,43.29
2023-10-21T21:11:40.366Z,43.33
2023-10-21T21:14:06.747Z,43.30
2023-10-21T21:16:36.278Z,43.33
2023-10-21T21:19:03.819Z,43.20
2023-10-21T21:21:30.245Z,43.31
2023-10-21T21:23:57.062Z,43.46
2023-10-21T21:26:23.787Z,43.28
2023-10-21T21:28:50.235Z,43.27
2023-10-21T21:31:16.704Z,43.22
2023-10-21T21:33:43.247Z,43.35
2023-10-21T21:36:10.874Z,43.25
2023-10-21T21:38:37.619Z,43.25
2023-10-21T21:41:10.988Z,43.20
2023-10-21T21:43:37.485Z,43.28
2023-10-21T21:46:04.045Z,43.19
2023-10-21T21:48:30.635Z,43.19
2023-10-21T21:51:03.594Z,43.15
2023-10-21T21:53:30.150Z,43.07
2023-10-21T21:55:56.628Z,43.24
2023-10-21T21:58:23.040Z,43.33
2023-10-21T22:00:49.640Z,43.27
2023-10-21T22:03:16.228Z,43.23
2023-10-21T22:05:43.219Z,43.21
2023-10-21T22:08:10.935Z,43.09
2023-10-21T22:10:39.007Z,43.12
2023-10-21T22:13:06.540Z,43.04
2023-10-21T22:15:32.998Z,43.38
2023-10-21T22:18:01.333Z,43.09
2023-10-21T22:20:28.855Z,43.09
2023-10-21T22:22:55.505Z,43.18
2023-10-21T22:25:39.880Z,43.15
2023-10-21T22:28:13.225Z,43.09
2023-10-21T22:30:44.342Z,43.24
2023-10-21T22:33:11.345Z,43.18
2023-10-21T22:35:37.903Z,43.19
2023-10-21T22:38:07.180Z,43.03
2023-10-21T22:40:34.018Z,43.07
2023-10-21T22:43:00.443Z,43.06
2023-10-21T22:45:27.766Z,43.01
2023-10-21T22:47:54.283Z,43.19
2023-10-21T22:50:22.188Z,43.02
2023-10-21T22:52:48.956Z,43.10
2023-10-21T22:55:16.431Z,42.99
2023-10-21T22:57:44.748Z,43.01
2023-10-21T23:00:14.366Z,42.94
2023-10-21T23:02:41.595Z,43.05
2023-10-21T23:05:09.201Z,43.00
2023-10-21T23:07:35.969Z,42.99
2023-10-21T23:10:05.931Z,42.93
2023-10-21T23:12:32.651Z,42.88
2023-10-21T23:14:59.121Z,42.96
2023-10-21T23:17:25.660Z,42.91
2023-10-21T23:19:52.101Z,43.03
2023-10-21T23:22:18.485Z,43.00
2023-10-21T23:24:44.975Z,43.06
2023-10-21T23:27:11.398Z,42.95
2023-10-21T23:29:37.854Z,43.04
2023-10-21T23:32:04.708Z,43.03
2023-10-21T23:34:31.207Z,42.97
2023-10-21T23:36:57.727Z,42.89
2023-10-21T23:39:24.345Z,42.91
2023-10-21T23:41:50.883Z,42.98
2023-10-21T23:44:17.570Z,42.97
2023-10-21T23:46:44.029Z,43.04
2023-10-21T23:49:10.498Z,43.01
2023-10-21T23:51:36.915Z,43.09
2023-10-21T23:54:04.180Z,42.98
2023-10-21T23:56:30.667Z,43.04
2023-10-21T23:58:57.407Z,42.99
